createdAt,value
2022-08-19T00:04:53.814Z,10.15
2022-08-19T00:09:56.893Z,10.55
2022-08-19T00:15:04.334Z,9.13
2022-08-19T00:20:11.784Z,10.32
2022-08-19T00:25:14.258Z,9.77
2022-08-19T00:30:17.736Z,8.98
2022-08-19T00:35:19.584Z,9.10
2022-08-19T00:40:21.990Z,9.25
2022-08-19T00:45:26.881Z,9.02
2022-08-19T00:50:29.152Z,9.20
2022-08-19T00:55:32.175Z,8.23
2022-08-19T01:00:37.966Z,8.15
2022-08-19T01:05:48.413Z,7.10
2022-08-19T01:10:59.883Z,8.20
2022-08-19T01:16:08.406Z,7.72
2022-08-19T01:21:34.689Z,5.90
2022-08-19T01:26:45.818Z,6.40
2022-08-19T01:31:53.098Z,6.20
2022-08-19T01:36:54.980Z,6.50
2022-08-19T01:41:56.838Z,5.05
2022-08-19T01:47:04.734Z,4.43
2022-08-19T01:52:07.090Z,4.88
2022-08-19T01:57:13.686Z,4.63
2022-08-19T02:02:23.025Z,4.63
2022-08-19T02:07:29.289Z,4.32
2022-08-19T02:12:33.168Z,4.88
2022-08-19T02:17:35.002Z,4.78
2022-08-19T02:22:36.843Z,5.35
2022-08-19T02:27:39.651Z,4.95
2022-08-19T02:32:46.040Z,4.93
2022-08-19T02:38:10.449Z,4.28
2022-08-19T02:43:12.340Z,4.82
2022-08-19T02:48:21.421Z,4.78
2022-08-19T02:53:27.051Z,5.85
2022-08-19T02:58:31.464Z,6.25
2022-08-19T03:03:35.432Z,5.00
2022-08-19T03:08:38.366Z,5.78
2022-08-19T03:13:44.267Z,5.70
2022-08-19T03:18:50.778Z,6.07
2022-08-19T03:23:56.485Z,6.80
2022-08-19T03:29:05.585Z,5.07
2022-08-19T03:34:12.670Z,4.88
2022-08-19T03:39:18.522Z,5.10
2022-08-19T03:44:26.468Z,8.18
2022-08-19T03:49:31.072Z,6.70
2022-08-19T03:54:35.484Z,7.72
2022-08-19T03:59:42.709Z,7.20
2022-08-19T04:04:45.037Z,7.75
2022-08-19T04:09:46.831Z,10.32
2022-08-19T04:14:50.922Z,13.82
2022-08-19T04:19:52.824Z,11.55
2022-08-19T04:24:56.629Z,13.32
2022-08-19T04:30:04.121Z,14.18
2022-08-19T04:35:17.517Z,15.73
2022-08-19T04:40:39.312Z,13.10
2022-08-19T04:45:49.523Z,12.80
2022-08-19T04:51:07.734Z,17.67
2022-08-19T04:56:11.046Z,15.60
2022-08-19T05:01:24.103Z,14.88
2022-08-19T05:06:29.709Z,15.10
2022-08-19T05:11:34.960Z,16.58
2022-08-19T05:16:36.899Z,15.30
2022-08-19T05:21:59.201Z,14.18
2022-08-19T05:27:01.715Z,13.57
2022-08-19T05:32:10.403Z,14.52
2022-08-19T05:37:12.192Z,14.23
2022-08-19T05:42:16.540Z,13.88
2022-08-19T05:47:23.091Z,13.75
2022-08-19T05:52:31.683Z,13.45
2022-08-19T05:57:33.645Z,13.60
2022-08-19T06:02:40.607Z,13.80
2022-08-19T06:07:45.879Z,12.65
2022-08-19T06:12:47.759Z,12.57
2022-08-19T06:17:54.294Z,12.60
2022-08-19T06:22:56.145Z,13.40
2022-08-19T06:28:14.758Z,13.00
2022-08-19T06:33:17.338Z,13.15
2022-08-19T06:38:24.493Z,12.77
2022-08-19T06:43:29.153Z,12.60
2022-08-19T06:48:31.575Z,11.15
2022-08-19T06:53:35.044Z,10.95
2022-08-19T06:58:39.144Z,9.70
2022-08-19T07:03:43.169Z,9.30
2022-08-19T07:08:48.659Z,9.98
2022-08-19T07:13:52.193Z,9.30
2022-08-19T07:18:57.496Z,8.13
2022-08-19T07:24:05.346Z,5.40
2022-08-19T07:29:12.234Z,4.50
2022-08-19T07:34:19.928Z,4.85
2022-08-19T07:39:28.555Z,3.85
2022-08-19T07:44:31.444Z,3.65
2022-08-19T07:49:38.439Z,3.17
2022-08-19T07:54:44.153Z,3.90
2022-08-19T07:59:46.899Z,2.90
2022-08-19T08:05:08.301Z,2.03
2022-08-19T08:10:20.748Z,2.65
2022-08-19T08:15:23.272Z,2.40
2022-08-19T08:20:30.566Z,2.20
2022-08-19T08:25:36.441Z,2.47
2022-08-19T08:30:45.086Z,1.92
2022-08-19T08:35:47.567Z,1.80
2022-08-19T08:40:55.749Z,1.98
2022-08-19T08:46:31.001Z,1.95
2022-08-19T08:51:59.355Z,1.90
2022-08-19T08:57:13.908Z,1.50
2022-08-19T09:02:20.746Z,2.40
2022-08-19T09:07:35.268Z,1.80
2022-08-19T09:13:09.427Z,1.70
2022-08-19T09:18:15.182Z,1.85
2022-08-19T09:23:26.541Z,1.80
2022-08-19T09:28:34.043Z,1.60
2022-08-19T09:33:36.439Z,1.85
2022-08-19T09:38:43.409Z,1.65
2022-08-19T09:43:53.076Z,1.70
2022-08-19T09:49:06.266Z,1.50
2022-08-19T09:54:11.222Z,1.83
2022-08-19T09:59:13.431Z,1.58
2022-08-19T10:04:20.472Z,1.60
2022-08-19T10:09:35.067Z,1.70
2022-08-19T10:14:37.961Z,1.73
2022-08-19T10:19:41.913Z,1.52
2022-08-19T10:24:58.697Z,1.38
2022-08-19T10:30:02.113Z,1.48
2022-08-19T10:35:09.047Z,1.40
2022-08-19T10:40:14.631Z,1.35
2022-08-19T10:45:16.504Z,1.48
2022-08-19T10:50:36.623Z,1.52
2022-08-19T10:56:04.290Z,1.42
2022-08-19T11:01:09.127Z,1.42
2022-08-19T11:06:10.960Z,1.40
2022-08-19T11:11:13.350Z,1.88
2022-08-19T11:16:17.937Z,1.73
2022-08-19T11:21:25.481Z,1.63
2022-08-19T11:26:33.497Z,1.70
2022-08-19T11:31:37.235Z,2.00
2022-08-19T11:36:46.824Z,1.80
2022-08-19T11:41:51.352Z,1.40
2022-08-19T11:46:53.744Z,1.40
2022-08-19T11:51:55.515Z,1.50
2022-08-19T11:56:57.274Z,1.33
2022-08-19T12:02:00.167Z,1.40
2022-08-19T12:07:02.890Z,1.70
2022-08-19T12:12:05.174Z,1.60
2022-08-19T12:17:12.449Z,1.60
2022-08-19T12:22:22.388Z,1.40
2022-08-19T12:27:40.292Z,1.40
2022-08-19T12:32:48.111Z,1.50
2022-08-19T12:37:56.977Z,1.50
2022-08-19T12:43:00.280Z,1.50
2022-08-19T12:48:02.127Z,1.33
2022-08-19T12:53:23.963Z,1.20
2022-08-19T12:58:27.506Z,0.90
2022-08-19T13:03:30.906Z,1.20
2022-08-19T13:08:33.652Z,1.35
2022-08-19T13:13:37.869Z,1.10
2022-08-19T13:18:48.286Z,1.27
2022-08-19T13:23:53.934Z,1.65
2022-08-19T13:29:14.714Z,1.05
2022-08-19T13:34:18.662Z,1.30
2022-08-19T13:39:26.117Z,1.20
2022-08-19T13:44:30.484Z,1.63
2022-08-19T13:49:37.207Z,1.52
2022-08-19T13:54:38.988Z,1.35
2022-08-19T13:59:42.966Z,1.30
2022-08-19T14:04:45.045Z,1.40
2022-08-19T14:09:46.811Z,1.48
2022-08-19T14:14:53.460Z,1.10
2022-08-19T14:20:10.926Z,1.20
2022-08-19T14:25:15.837Z,1.50
2022-08-19T14:30:20.948Z,1.88
2022-08-19T14:35:25.842Z,1.63
2022-08-19T14:40:31.203Z,1.60
2022-08-19T14:45:36.730Z,1.65
2022-08-19T14:50:39.360Z,2.30
2022-08-19T14:55:46.451Z,2.03
2022-08-19T15:00:50.294Z,2.17
2022-08-19T15:05:58.316Z,2.13
2022-08-19T15:11:00.885Z,1.45
2022-08-19T15:16:05.542Z,1.38
2022-08-19T15:21:13.442Z,1.20
2022-08-19T15:26:23.109Z,1.73
2022-08-19T15:31:28.165Z,1.52
2022-08-19T15:36:32.732Z,1.40
2022-08-19T15:41:34.887Z,1.10
2022-08-19T15:46:41.494Z,1.30
2022-08-19T15:51:45.321Z,1.23
2022-08-19T15:57:07.526Z,1.38
2022-08-19T16:02:32.644Z,1.60
2022-08-19T16:07:34.433Z,1.20
2022-08-19T16:12:41.387Z,0.90
2022-08-19T16:17:43.595Z,0.90
2022-08-19T16:22:59.352Z,1.08
2022-08-19T16:28:08.551Z,1.75
2022-08-19T16:33:10.801Z,2.33
2022-08-19T16:38:13.597Z,1.60
2022-08-19T16:43:17.568Z,1.20
2022-08-19T16:48:23.977Z,1.40
2022-08-19T16:53:31.816Z,1.90
2022-08-19T16:58:36.792Z,1.90
2022-08-19T17:03:41.245Z,1.80
2022-08-19T17:08:48.712Z,1.30
2022-08-19T17:13:56.683Z,1.30
2022-08-19T17:19:01.679Z,1.45
2022-08-19T17:24:08.690Z,1.30
2022-08-19T17:29:12.921Z,1.10
2022-08-19T17:34:17.309Z,1.20
2022-08-19T17:39:19.407Z,1.40
2022-08-19T17:44:25.597Z,1.20
2022-08-19T17:49:30.322Z,1.55
2022-08-19T17:54:37.329Z,1.40
2022-08-19T17:59:44.066Z,1.30
2022-08-19T18:04:51.133Z,1.60
2022-08-19T18:10:01.771Z,2.17
2022-08-19T18:15:10.153Z,2.50
2022-08-19T18:20:14.312Z,2.05
2022-08-19T18:25:28.217Z,2.00
2022-08-19T18:30:34.455Z,2.90
2022-08-19T18:35:39.388Z,2.75
2022-08-19T18:41:02.780Z,3.33
2022-08-19T18:46:36.993Z,4.05
2022-08-19T18:51:42.355Z,3.20
2022-08-19T18:56:44.846Z,3.50
2022-08-19T19:01:57.082Z,2.85
2022-08-19T19:07:03.722Z,3.03
2022-08-19T19:12:11.529Z,3.22
2022-08-19T19:17:14.813Z,3.30
2022-08-19T19:22:21.611Z,3.92
2022-08-19T19:27:23.338Z,3.33
2022-08-19T19:32:36.931Z,3.25
2022-08-19T19:37:40.538Z,3.40
2022-08-19T19:42:45.330Z,4.10
2022-08-19T19:47:50.107Z,3.63
2022-08-19T19:52:51.923Z,4.05
2022-08-19T19:57:54.960Z,4.25
2022-08-19T20:02:56.908Z,4.45
2022-08-19T20:08:19.709Z,4.47
2022-08-19T20:13:23.746Z,6.15
2022-08-19T20:18:26.064Z,5.78
2022-08-19T20:23:31.167Z,7.50
2022-08-19T20:28:36.937Z,6.57
2022-08-19T20:33:41.949Z,7.13
2022-08-19T20:38:43.826Z,7.43
2022-08-19T20:43:46.172Z,9.05
2022-08-19T20:48:48.011Z,7.80
2022-08-19T20:53:53.809Z,8.82
2022-08-19T20:58:59.940Z,9.23
2022-08-19T21:04:05.401Z,13.55
2022-08-19T21:09:09.396Z,12.50
2022-08-19T21:14:19.531Z,11.63
2022-08-19T21:19:29.547Z,12.07
2022-08-19T21:24:34.073Z,13.73
2022-08-19T21:29:39.046Z,12.88
2022-08-19T21:34:46.881Z,12.73
2022-08-19T21:39:49.584Z,13.40
2022-08-19T21:45:00.224Z,13.80
2022-08-19T21:50:05.487Z,14.23
2022-08-19T21:55:12.146Z,15.68
2022-08-19T22:00:20.439Z,14.85
2022-08-19T22:05:33.307Z,15.20
2022-08-19T22:10:37.552Z,15.32
2022-08-19T22:15:42.504Z,14.77
2022-08-19T22:20:45.076Z,16.02
2022-08-19T22:25:47.328Z,14.55
2022-08-19T22:30:51.333Z,15.73
2022-08-19T22:35:55.831Z,17.88
2022-08-19T22:41:00.137Z,15.48
2022-08-19T22:46:02.469Z,16.98
2022-08-19T22:51:25.295Z,15.85
2022-08-19T22:56:32.967Z,15.32
2022-08-19T23:01:41.752Z,15.07
2022-08-19T23:06:43.516Z,15.60
2022-08-19T23:11:48.028Z,17.13
2022-08-19T23:16:54.120Z,17.90
2022-08-19T23:22:00.739Z,15.70
2022-08-19T23:27:23.061Z,17.45
2022-08-19T23:32:26.240Z,16.85
2022-08-19T23:37:37.166Z,17.98
2022-08-19T23:42:47.185Z,18.77
2022-08-19T23:47:48.963Z,16.80
2022-08-19T23:52:57.391Z,18.55
2022-08-19T23:58:05.574Z,18.02
